Flight Track Log - Related Links

Times and Time Zones

All times are in EDT time to prevent confusion due to time zone crossing. See the AJI501 flight status page for this flight to view local times or setup timezone preferences in your user account.


Time Position Orientation Groundspeed Altitude Reporting Facility
EDT Latitude Longitude Course Direction KTS MPH feet Rate Location/Type
Fri 05:40:39 PM 34.7494 -92.2097 31° Northeast 178 205 1,500  Level Memphis Center
Fri 05:41:40 PM 34.7675 -92.2583 294° West 189 217 4,300 2,661 Climbing Memphis Center
Fri 05:42:34 PM 34.7644 -92.3214 267° West 199 229 6,600 2,204 Climbing Memphis Center
Fri 05:43:18 PM 34.7594 -92.3744 263° West 224 258 7,900 1,962 Climbing Memphis Center
Fri 05:44:18 PM 34.7311 -92.4544 247° West 242 278 10,000 2,150 Climbing Memphis Center
Fri 05:45:18 PM 34.6942 -92.5344 241° Southwest 256 295 12,200 2,200 Climbing Memphis Center
Fri 05:46:18 PM 34.6514 -92.6042 233° Southwest 261 300 14,400 1,800 Climbing Memphis Center
Fri 05:47:18 PM 34.6000 -92.6758 229° Southwest 273 314 15,800 1,350 Climbing Memphis Center
Fri 05:48:18 PM 34.5442 -92.7550 229° Southwest 293 337 17,100 1,550 Climbing Memphis Center
Fri 05:49:18 PM 34.4883 -92.8367 230° Southwest 307 353 18,900 1,800 Climbing Memphis Center
Fri 05:50:18 PM 34.4347 -92.9131 230° Southwest 307 353 20,700 1,450 Climbing Memphis Center
Fri 05:51:18 PM 34.3808 -92.9919 230° Southwest 307 353 21,800 1,150 Climbing Memphis Center
Fri 05:52:18 PM 34.3228 -93.0683 227° Southwest 325 374 23,000 1,600 Climbing Memphis Center
Fri 05:54:03 PM 34.2217 -93.2039 228° Southwest 313 360 26,200 1,636 Climbing Fort Worth Center
Fri 05:55:03 PM 34.1700 -93.2819 231° Southwest 308 354 27,500 900 Climbing Fort Worth Center
Fri 05:56:03 PM 34.1122 -93.3597 228° Southwest 308 354 28,000 250 Climbing Fort Worth Center
Fri 05:57:03 PM 34.0500 -93.4406 227° Southwest 319 367 28,000  Level Fort Worth Center
Fri 05:58:03 PM 33.9817 -93.5236 225° Southwest 337 388 28,000  Level Fort Worth Center
Fri 05:59:03 PM 33.9069 -93.6072 223° Southwest 350 403 28,000  Level Fort Worth Center
Fri 06:00:03 PM 33.8258 -93.6831 218° Southwest 368 423 28,000  Level Fort Worth Center
Fri 06:01:03 PM 33.7250 -93.7350 203° Southwest 375 432 28,000  Level Fort Worth Center
Fri 06:02:03 PM 33.6289 -93.7964 208° Southwest 386 444 28,000  Level Fort Worth Center
Fri 06:03:03 PM 33.5367 -93.8625 211° Southwest 386 444 28,000  Level Fort Worth Center
Fri 06:04:03 PM 33.4428 -93.9308 211° Southwest 391 450 28,000  Level Fort Worth Center
Fri 06:05:03 PM 33.3486 -94.0017 212° Southwest 398 458 28,000  Level Fort Worth Center
Fri 06:06:03 PM 33.2544 -94.0650 209° Southwest 403 464 28,000  Level Fort Worth Center
Fri 06:07:03 PM 33.1619 -94.1256 209° Southwest 392 451 28,000  Level Fort Worth Center
Fri 06:08:03 PM 33.0656 -94.1886 209° Southwest 392 451 28,000  Level Fort Worth Center
Fri 06:09:03 PM 32.9731 -94.2489 209° Southwest 386 444 28,000  Level Fort Worth Center
Fri 06:10:03 PM 32.8808 -94.3089 209° Southwest 386 444 28,000  Level Fort Worth Center
Fri 06:11:03 PM 32.7883 -94.3714 210° Southwest 386 444 28,000  Level Fort Worth Center
Fri 06:12:03 PM 32.6978 -94.4314 209° Southwest 386 444 28,000  Level Fort Worth Center
Fri 06:13:03 PM 32.6075 -94.4936 210° Southwest 386 444 28,000  Level Fort Worth Center
Fri 06:14:03 PM 32.5150 -94.5531 208° Southwest 386 444 28,000  Level Fort Worth Center
Fri 06:15:03 PM 32.4242 -94.6078 207° Southwest 386 444 28,000  Level Fort Worth Center
Fri 06:16:03 PM 32.3358 -94.6644 208° Southwest 380 437 28,000  Level Fort Worth Center
Fri 06:17:03 PM 32.2472 -94.7261 210° Southwest 375 432 28,000  Level Fort Worth Center
Fri 06:18:03 PM 32.1631 -94.7900 213° Southwest 370 426 28,000  Level Fort Worth Center
Fri 06:19:03 PM 32.0767 -94.8464 209° Southwest 364 419 28,000  Level Fort Worth Center
Fri 06:20:03 PM 31.9881 -94.9053 209° Southwest 364 419 28,000  Level Fort Worth Center
Fri 06:21:03 PM 31.9014 -94.9614 209° Southwest 364 419 28,000  Level Fort Worth Center
Fri 06:23:18 PM 31.7094 -95.0833 208° Southwest 355 409 28,000  Level Houston Center
Fri 06:24:20 PM 31.6231 -95.1386 209° Southwest 354 407 28,000  Level Houston Center
Fri 06:25:22 PM 31.5211 -95.2044 209° Southwest 350 403 28,000  Level Houston Center
Fri 06:26:24 PM 31.4378 -95.2611 210° Southwest 348 400 28,000  Level Houston Center
Fri 06:27:26 PM 31.3539 -95.3153 209° Southwest 346 398 28,000  Level Houston Center
Fri 06:28:28 PM 31.2711 -95.3683 209° Southwest 344 396 28,000  Level Houston Center
Fri 06:29:30 PM 31.1869 -95.4206 208° Southwest 343 395 28,000  Level Houston Center
Fri 06:30:32 PM 31.0875 -95.4850 209° Southwest 341 392 28,000  Level Houston Center
Fri 06:31:34 PM 31.0031 -95.5372 208° Southwest 342 394 28,000  Level Houston Center
Fri 06:32:37 PM 30.9208 -95.5897 209° Southwest 340 391 28,000  Level Houston Center
Fri 06:33:39 PM 30.8386 -95.6422 209° Southwest 339 390 28,000  Level Houston Center
Fri 06:34:41 PM 30.7564 -95.6961 209° Southwest 339 390 28,000  Level Houston Center
Fri 06:35:43 PM 30.6747 -95.7475 208° Southwest 341 392 28,000  Level Houston Center
Fri 06:36:45 PM 30.5725 -95.8108 208° Southwest 345 397 28,000  Level Houston Center
Fri 06:37:47 PM 30.4889 -95.8631 208° Southwest 344 396 28,000  Level Houston Center
Fri 06:38:49 PM 30.4056 -95.9153 208° Southwest 342 394 28,000  Level Houston Center
Fri 06:39:51 PM 30.3222 -95.9675 208° Southwest 342 394 28,000  Level Houston Center
Fri 06:40:53 PM 30.2383 -96.0200 208° Southwest 344 396 28,000  Level Houston Center
Fri 06:41:56 PM 30.1417 -96.0808 209° Southwest 346 398 28,000  Level Houston Center
Fri 06:42:58 PM 30.0639 -96.1294 208° Southwest 345 397 28,000  Level Houston Center
Fri 06:44:00 PM 29.9631 -96.1922 208° Southwest 343 395 28,000  Level Houston Center
Fri 06:45:02 PM 29.8789 -96.2453 209° Southwest 344 396 28,000  Level Houston Center
Fri 06:46:04 PM 29.7958 -96.2986 209° Southwest 342 394 28,000  Level Houston Center
Fri 06:47:06 PM 29.7117 -96.3500 208° Southwest 343 395 28,000  Level Houston Center
Fri 06:49:10 PM 29.5408 -96.4483 207° Southwest 342 394 28,000  Level Houston Center
Fri 06:50:12 PM 29.4350 -96.5028 204° Southwest 345 397 28,000  Level Houston Center
Fri 06:51:15 PM 29.3492 -96.5506 206° Southwest 341 392 28,000  Level Houston Center
Fri 06:52:17 PM 29.2636 -96.5981 206° Southwest 339 390 28,000  Level Houston Center
Fri 06:53:19 PM 29.1786 -96.6467 207° Southwest 337 388 28,000  Level Houston Center
Fri 06:54:21 PM 29.0928 -96.6944 206° Southwest 338 389 28,000  Level Houston Center
Fri 06:55:23 PM 29.0075 -96.7408 205° Southwest 338 389 28,000  Level Houston Center
Fri 06:56:25 PM 28.9214 -96.7872 205° Southwest 338 389 28,000  Level Houston Center
Fri 06:57:27 PM 28.8194 -96.8431 206° Southwest 338 389 28,000  Level Houston Center
Fri 06:58:29 PM 28.7369 -96.8894 206° Southwest 334 384 28,000  Level Houston Center
Fri 06:59:31 PM 28.6525 -96.9336 205° Southwest 333 383 28,000  Level Houston Center
Fri 07:00:34 PM 28.5686 -96.9794 206° Southwest 333 383 28,000  Level Houston Center
Fri 07:01:36 PM 28.4842 -97.0239 205° Southwest 334 384 28,000  Level Houston Center
Fri 07:02:38 PM 28.4003 -97.0692 205° Southwest 333 383 28,000  Level Houston Center
Fri 07:03:40 PM 28.3000 -97.1239 206° Southwest 333 383 28,000  Level Houston Center
Fri 07:04:42 PM 28.2158 -97.1686 205° Southwest 333 383 28,000  Level Houston Center
Fri 07:05:44 PM 28.1325 -97.2142 206° Southwest 333 383 28,000  Level Houston Center
Fri 07:06:46 PM 28.0481 -97.2594 205° Southwest 334 384 28,000  Level Houston Center
Fri 07:07:48 PM 27.9633 -97.3039 205° Southwest 334 384 28,000  Level Houston Center
Fri 07:08:51 PM 27.8761 -97.3497 205° Southwest 335 386 28,000  Level Houston Center
Fri 07:09:53 PM 27.7914 -97.3950 205° Southwest 335 386 28,000  Level Houston Center
Fri 07:10:55 PM 27.6886 -97.4492 205° Southwest 338 389 28,000  Level Houston Center
Fri 07:11:57 PM 27.6019 -97.4953 205° Southwest 341 392 28,000 -145 Level Houston Center
Fri 07:12:59 PM 27.5158 -97.5408 205° Southwest 341 392 27,700 -1,113 Descending Houston Center
Fri 07:14:01 PM 27.4228 -97.5906 205° Southwest 359 413 25,700 -1,742 Descending Houston Center
Fri 07:15:03 PM 27.3208 -97.6408 204° Southwest 389 448 24,100 -1,306 Descending Houston Center
Fri 07:16:05 PM 27.2236 -97.6978 208° Southwest 394 453 23,000 -1,500 Descending Houston Center
Fri 07:17:07 PM 27.1408 -97.8000 228° Southwest 370 426 21,000 -1,872 Descending Houston Center
Fri 07:18:10 PM 27.0678 -97.8956 229° Southwest 370 426 19,100 -1,660 Descending Houston Center
Fri 07:19:28 PM 26.9772 -98.0031 227° Southwest 382 440 17,100 -1,452 Descending Houston Center
Fri 07:20:14 PM 26.9156 -98.0386 207° Southwest 388 447 16,100 -1,582 Descending Houston Center
Fri 07:20:59 PM 26.8347 -98.0686 198° South 373 429 14,700 -2,032 Descending Houston Center
Fri 07:21:16 PM 26.8056 -98.0803 200° South 366 421 14,000 -1,869 Descending Houston Center
Fri 07:22:00 PM 26.7456 -98.1014 197° South 342 394 12,800 -1,839 Descending Houston Center
Fri 07:22:18 PM 26.7200 -98.1117 200° South 331 381 12,100 -1,967 Descending Houston Center
Fri 07:23:01 PM 26.6567 -98.1342 198° South 318 366 10,800 -1,839 Descending Houston Center
Fri 07:23:20 PM 26.6317 -98.1444 200° South 316 364 10,200 -1,200 Descending Houston Center
Fri 07:23:56 PM 26.5839 -98.1622 198° South 306 352 9,700 -968 Descending Houston Center
Fri 07:24:22 PM 26.5575 -98.1761 205° Southwest 293 337 9,200 -1,250 Descending Houston Center
Fri 07:25:08 PM 26.5058 -98.2006 203° Southwest 273 314 8,200 -1,548 Descending Houston Center
Fri 07:25:24 PM 26.4864 -98.2108 205° Southwest 265 305 7,600 -1,615 Descending Houston Center
Fri 07:26:26 PM 26.4192 -98.2436 204° Southwest 264 304 6,100 -1,440 Descending Houston Center
Fri 07:27:04 PM 26.3758 -98.2664 205° Southwest 266 306 5,200 -1,548 Descending Houston Center
Fri 07:27:28 PM 26.3458 -98.2853 209° Southwest 272 313 4,500 -1,418 Descending Houston Center
Fri 07:27:59 PM 26.3122 -98.3000 201° Southwest 273 314 3,900 -952 Descending Houston Center
Fri 07:28:31 PM 26.2764 -98.3117 196° South 267 307 3,500 -684 Descending Houston Center
Fri 07:29:18 PM 26.2433 -98.3042 168° South 190 219 3,000 -1,065 Descending Houston Center
Fri 07:29:33 PM 26.2322 -98.2953 144° Southeast 175 201 2,400 -1,714 Descending Houston Center
Fri 07:30:07 PM 26.2175 -98.2797 137° Southeast 142 163 1,600 -1,548 Descending Houston Center
Fri 07:30:35 PM 26.2053 -98.2678 139° Southeast 137 158 800 -600 Descending Houston Center
Fri 07:31:37 PM 26.1792 -98.2433 140° Southeast 136 157 700 -97 Descending Houston Center

Login

Don't have an account? Register now (free) for customized features, flight alerts, and more!